createdAt,value
2023-04-24T00:00:25.979Z,2.47
2023-04-24T00:02:58.420Z,2.10
2023-04-24T00:05:26.713Z,2.40
2023-04-24T00:07:55.236Z,2.67
2023-04-24T00:10:23.364Z,2.50
2023-04-24T00:12:51.282Z,2.67
2023-04-24T00:15:19.200Z,2.60
2023-04-24T00:17:47.327Z,2.60
2023-04-24T00:20:16.721Z,2.60
2023-04-24T00:22:44.657Z,2.53
2023-04-24T00:25:12.573Z,3.17
2023-04-24T00:27:40.561Z,3.90
2023-04-24T00:30:09.608Z,2.50
2023-04-24T00:32:37.672Z,2.57
2023-04-24T00:35:06.864Z,1.90
2023-04-24T00:37:36.781Z,2.60
2023-04-24T00:40:05.382Z,1.60
2023-04-24T00:42:33.321Z,1.60
2023-04-24T00:45:01.363Z,2.40
2023-04-24T00:47:29.344Z,2.10
2023-04-24T00:49:57.288Z,2.30
2023-04-24T00:52:26.382Z,2.60
2023-04-24T00:54:55.861Z,2.07
2023-04-24T00:57:24.733Z,2.30
2023-04-24T00:59:52.966Z,1.90
2023-04-24T01:02:21.052Z,1.27
2023-04-24T01:04:49.089Z,2.60
2023-04-24T01:07:17.038Z,1.67
2023-04-24T01:09:45.266Z,2.50
2023-04-24T01:12:14.748Z,2.20
2023-04-24T01:14:42.665Z,1.97
2023-04-24T01:17:10.601Z,1.97
2023-04-24T01:19:39.055Z,2.60
2023-04-24T01:22:12.814Z,2.40
2023-04-24T01:24:40.909Z,2.57
2023-04-24T01:27:08.856Z,1.70
2023-04-24T01:29:36.831Z,1.90
2023-04-24T01:32:05.022Z,2.70
2023-04-24T01:34:33.029Z,1.80
2023-04-24T01:37:01.301Z,3.43
2023-04-24T01:39:30.596Z,2.80
2023-04-24T01:41:58.538Z,2.57
2023-04-24T01:44:26.458Z,2.57
2023-04-24T01:46:55.137Z,2.40
2023-04-24T01:49:23.139Z,2.60
2023-04-24T01:51:51.132Z,2.77
2023-04-24T01:54:19.111Z,2.33
2023-04-24T01:56:48.400Z,3.67
2023-04-24T01:59:16.537Z,2.40
2023-04-24T02:01:44.479Z,2.93
2023-04-24T02:04:12.613Z,2.60
2023-04-24T02:06:40.630Z,3.27
2023-04-24T02:09:09.058Z,2.57
2023-04-24T02:11:36.984Z,2.97
2023-04-24T02:14:06.339Z,2.97
2023-04-24T02:16:34.896Z,2.60
2023-04-24T02:19:02.910Z,3.20
2023-04-24T02:21:31.784Z,2.90
2023-04-24T02:23:59.765Z,3.33
2023-04-24T02:26:28.013Z,3.40
2023-04-24T02:28:55.927Z,3.70
2023-04-24T02:31:25.801Z,3.63
2023-04-24T02:33:53.725Z,3.10
2023-04-24T02:36:22.154Z,3.13
2023-04-24T02:38:50.076Z,2.20
2023-04-24T02:41:18.046Z,3.90
2023-04-24T02:43:46.231Z,2.90
2023-04-24T02:46:14.229Z,2.90
2023-04-24T02:48:43.582Z,3.87
2023-04-24T02:51:11.554Z,3.87
2023-04-24T02:53:39.533Z,4.07
2023-04-24T02:56:07.508Z,3.17
2023-04-24T02:58:36.563Z,3.87
2023-04-24T03:01:04.604Z,3.60
2023-04-24T03:03:32.803Z,4.20
2023-04-24T03:06:02.673Z,4.20
2023-04-24T03:08:30.655Z,4.17
2023-04-24T03:10:58.669Z,4.23
2023-04-24T03:13:26.748Z,4.60
2023-04-24T03:15:55.177Z,4.60
2023-04-24T03:18:23.242Z,3.80
2023-04-24T03:20:51.490Z,3.80
2023-04-24T03:23:20.840Z,4.40
2023-04-24T03:25:49.609Z,3.53
2023-04-24T03:28:17.589Z,3.97
2023-04-24T03:30:45.711Z,3.67
2023-04-24T03:33:13.634Z,4.23
2023-04-24T03:35:42.307Z,3.73
2023-04-24T03:38:10.292Z,4.73
2023-04-24T03:40:39.625Z,4.43
2023-04-24T03:43:07.570Z,5.60
2023-04-24T03:45:35.528Z,4.93
2023-04-24T03:48:03.520Z,3.90
2023-04-24T03:50:31.494Z,4.30
2023-04-24T03:52:59.411Z,4.07
2023-04-24T03:55:27.437Z,4.90
2023-04-24T03:57:56.772Z,6.30
2023-04-24T04:00:24.876Z,6.30
2023-04-24T04:02:53.070Z,5.40
2023-04-24T04:05:21.233Z,5.77
2023-04-24T04:07:49.336Z,5.73
2023-04-24T04:10:18.269Z,5.27
2023-04-24T04:12:46.250Z,6.60
2023-04-24T04:15:15.557Z,4.50
2023-04-24T04:17:43.527Z,6.17
2023-04-24T04:20:12.876Z,5.97
2023-04-24T04:22:42.667Z,7.27
2023-04-24T04:25:12.737Z,4.33
2023-04-24T04:27:42.667Z,7.30
2023-04-24T04:30:11.083Z,7.97
2023-04-24T04:32:40.431Z,6.60
2023-04-24T04:35:08.888Z,4.23
2023-04-24T04:37:37.019Z,6.60
2023-04-24T04:40:07.670Z,3.70
2023-04-24T04:42:36.206Z,3.90
2023-04-24T04:45:05.214Z,3.60
2023-04-24T04:47:33.767Z,2.80
2023-04-24T04:50:04.274Z,4.97
2023-04-24T04:52:32.237Z,3.33
2023-04-24T04:55:00.257Z,3.40
2023-04-24T04:57:28.218Z,3.60
2023-04-24T04:59:56.179Z,3.37
2023-04-24T05:02:24.157Z,3.47
2023-04-24T05:04:52.420Z,3.63
2023-04-24T05:07:21.978Z,4.30
2023-04-24T05:09:49.923Z,3.60
2023-04-24T05:12:17.924Z,3.70
2023-04-24T05:14:45.994Z,3.13
2023-04-24T05:17:13.931Z,3.10
2023-04-24T05:19:42.155Z,3.93
2023-04-24T05:22:10.837Z,3.57
2023-04-24T05:24:40.177Z,3.20
2023-04-24T05:27:08.183Z,3.07
2023-04-24T05:29:36.221Z,2.40
2023-04-24T05:32:04.192Z,2.87
2023-04-24T05:34:32.140Z,2.70
2023-04-24T05:37:00.104Z,2.40
2023-04-24T05:39:28.309Z,2.10
2023-04-24T05:41:59.351Z,2.43
2023-04-24T05:44:27.346Z,2.60
2023-04-24T05:46:56.455Z,2.87
2023-04-24T05:49:24.443Z,2.80
2023-04-24T05:51:52.368Z,2.60
2023-04-24T05:54:20.339Z,2.90
2023-04-24T05:56:48.339Z,3.50
2023-04-24T05:59:17.684Z,3.57
2023-04-24T06:01:45.853Z,3.00
2023-04-24T06:04:15.049Z,2.60
2023-04-24T06:06:43.215Z,2.67
2023-04-24T06:09:11.163Z,2.37
2023-04-24T06:11:39.130Z,3.00
2023-04-24T06:14:07.273Z,2.40
2023-04-24T06:16:36.643Z,2.40
2023-04-24T06:19:04.889Z,3.27
2023-04-24T06:21:32.809Z,2.73
2023-04-24T06:24:01.069Z,3.37
2023-04-24T06:26:28.984Z,2.77
2023-04-24T06:28:56.949Z,2.90
2023-04-24T06:31:24.953Z,3.07
2023-04-24T06:33:54.284Z,2.50
2023-04-24T06:36:22.179Z,2.70
2023-04-24T06:38:50.148Z,2.47
2023-04-24T06:41:18.069Z,2.73
2023-04-24T06:43:46.071Z,2.50
2023-04-24T06:46:14.079Z,2.63
2023-04-24T06:48:42.062Z,3.03
2023-04-24T06:51:11.412Z,2.50
2023-04-24T06:53:39.376Z,3.00
2023-04-24T06:56:07.374Z,2.10
2023-04-24T06:58:35.318Z,2.60
2023-04-24T07:01:03.267Z,1.97
2023-04-24T07:03:32.474Z,2.27
2023-04-24T07:06:00.724Z,2.70
2023-04-24T07:08:31.500Z,2.57
2023-04-24T07:10:59.460Z,2.03
2023-04-24T07:13:27.512Z,2.50
2023-04-24T07:15:57.294Z,2.40
2023-04-24T07:18:25.277Z,2.07
2023-04-24T07:20:53.217Z,2.00
2023-04-24T07:23:21.687Z,1.93
2023-04-24T07:25:50.977Z,2.27
2023-04-24T07:28:19.374Z,2.43
2023-04-24T07:30:47.341Z,2.60
2023-04-24T07:33:15.294Z,2.27
2023-04-24T07:35:43.269Z,2.70
2023-04-24T07:38:11.261Z,2.63
2023-04-24T07:40:39.418Z,2.70
2023-04-24T07:43:08.813Z,1.83
2023-04-24T07:45:38.617Z,2.80
2023-04-24T07:48:06.957Z,3.10
2023-04-24T07:50:35.878Z,2.20
2023-04-24T07:53:03.808Z,2.20
2023-04-24T07:55:31.736Z,2.33
2023-04-24T07:57:59.668Z,2.50
2023-04-24T08:00:29.046Z,3.20
2023-04-24T08:02:57.261Z,2.53
2023-04-24T08:05:26.793Z,2.83
2023-04-24T08:07:55.527Z,2.73
2023-04-24T08:10:23.585Z,2.27
2023-04-24T08:12:51.598Z,2.10
2023-04-24T08:15:19.595Z,2.60
2023-04-24T08:17:49.081Z,2.27
2023-04-24T08:20:17.024Z,2.17
2023-04-24T08:22:45.120Z,2.40
2023-04-24T08:25:13.128Z,2.60
2023-04-24T08:27:41.072Z,2.50
2023-04-24T08:30:09.674Z,2.63
2023-04-24T08:32:38.539Z,2.40
2023-04-24T08:35:10.257Z,2.17
2023-04-24T08:37:38.285Z,2.40
2023-04-24T08:40:10.647Z,2.60
2023-04-24T08:42:38.658Z,3.13
2023-04-24T08:45:07.573Z,2.50
2023-04-24T08:47:35.622Z,2.80
2023-04-24T08:50:04.399Z,2.33
2023-04-24T08:52:34.291Z,2.40
2023-04-24T08:55:02.571Z,3.00
2023-04-24T08:57:30.619Z,2.57
2023-04-24T08:59:58.634Z,2.80
2023-04-24T09:02:27.283Z,3.57
2023-04-24T09:04:55.491Z,2.70
2023-04-24T09:07:23.638Z,3.93
2023-04-24T09:09:52.951Z,2.57
2023-04-24T09:12:21.222Z,2.73
2023-04-24T09:14:49.176Z,2.10
2023-04-24T09:17:17.132Z,3.20
2023-04-24T09:19:45.147Z,2.80
2023-04-24T09:22:13.255Z,3.13
2023-04-24T09:24:41.207Z,3.10
2023-04-24T09:27:11.330Z,2.47
2023-04-24T09:29:39.319Z,2.73
2023-04-24T09:32:20.845Z,2.30
2023-04-24T09:34:49.492Z,3.10
2023-04-24T09:37:29.572Z,3.37
2023-04-24T09:40:11.181Z,2.43
2023-04-24T09:42:40.504Z,2.60
2023-04-24T09:45:15.228Z,2.10
2023-04-24T09:47:43.718Z,1.90
2023-04-24T09:50:12.985Z,2.40
2023-04-24T09:52:45.105Z,1.90
2023-04-24T09:55:14.331Z,1.87
2023-04-24T09:57:51.772Z,2.40
2023-04-24T10:00:26.307Z,2.50
2023-04-24T10:02:58.477Z,2.37
2023-04-24T10:05:27.588Z,2.80
2023-04-24T10:07:59.155Z,2.00
2023-04-24T10:10:27.362Z,2.23
2023-04-24T10:12:56.926Z,2.70
2023-04-24T10:15:24.884Z,2.40
2023-04-24T10:17:54.414Z,3.00
2023-04-24T10:20:23.114Z,2.80
2023-04-24T10:22:54.618Z,2.33
2023-04-24T10:25:23.248Z,2.23
2023-04-24T10:27:51.960Z,1.97
2023-04-24T10:30:22.132Z,2.43
2023-04-24T10:32:50.169Z,2.47
2023-04-24T10:35:18.271Z,2.20
2023-04-24T10:37:48.719Z,2.10
2023-04-24T10:40:19.636Z,2.17
2023-04-24T10:42:49.816Z,2.10
2023-04-24T10:45:23.204Z,1.77
2023-04-24T10:47:55.440Z,2.53
2023-04-24T10:50:23.471Z,2.60
2023-04-24T10:52:52.466Z,2.27
2023-04-24T10:55:41.607Z,1.73
2023-04-24T10:58:09.636Z,2.67
2023-04-24T11:00:40.261Z,2.50
2023-04-24T11:03:08.532Z,2.40
2023-04-24T11:05:53.105Z,1.77
2023-04-24T11:08:25.912Z,2.37
2023-04-24T11:11:01.592Z,2.40
2023-04-24T11:13:30.510Z,2.30
2023-04-24T11:16:22.726Z,2.10
2023-04-24T11:18:55.254Z,2.40
2023-04-24T11:21:24.358Z,2.13
2023-04-24T11:23:52.835Z,2.40
2023-04-24T11:26:21.382Z,2.20
2023-04-24T11:28:49.684Z,2.57
2023-04-24T11:31:38.108Z,1.87
2023-04-24T11:34:10.539Z,1.83
2023-04-24T11:36:38.759Z,2.03
2023-04-24T11:39:06.760Z,2.10
2023-04-24T11:41:35.631Z,2.20
2023-04-24T11:44:04.120Z,2.93
2023-04-24T11:46:33.241Z,2.40
2023-04-24T11:49:02.717Z,2.10
2023-04-24T11:51:40.646Z,1.97
2023-04-24T11:54:16.408Z,1.80
2023-04-24T11:56:47.306Z,1.70
2023-04-24T11:59:15.331Z,1.97
2023-04-24T12:01:46.809Z,2.20
2023-04-24T12:04:16.505Z,2.33
2023-04-24T12:07:02.328Z,12.10
2023-04-24T12:09:30.351Z,15.17
2023-04-24T12:11:59.038Z,14.67
2023-04-24T12:14:27.041Z,18.50
2023-04-24T12:16:55.053Z,25.47
2023-04-24T12:19:24.600Z,20.20
2023-04-24T12:22:02.639Z,10.60
2023-04-24T12:24:31.253Z,4.93
2023-04-24T12:26:59.246Z,2.30
2023-04-24T12:29:27.287Z,2.20
2023-04-24T12:31:56.403Z,2.90
2023-04-24T12:34:28.024Z,3.17
2023-04-24T12:36:56.114Z,2.33
2023-04-24T12:39:27.683Z,2.87
2023-04-24T12:41:59.260Z,2.53
2023-04-24T12:44:35.481Z,2.00
2023-04-24T12:47:03.635Z,1.93
2023-04-24T12:49:33.028Z,2.80
2023-04-24T12:52:01.023Z,1.90
2023-04-24T12:54:28.966Z,2.83
2023-04-24T12:56:57.724Z,2.40
2023-04-24T12:59:25.724Z,2.70
2023-04-24T13:01:53.736Z,2.40
2023-04-24T13:04:21.857Z,2.70
2023-04-24T13:06:51.269Z,2.40
2023-04-24T13:09:19.266Z,2.90
2023-04-24T13:11:47.250Z,2.30
2023-04-24T13:14:15.207Z,2.80
2023-04-24T13:16:43.232Z,2.13
2023-04-24T13:19:11.449Z,2.07
2023-04-24T13:21:39.385Z,3.63
2023-04-24T13:24:08.962Z,1.90
2023-04-24T13:26:37.077Z,1.70
2023-04-24T13:29:05.215Z,1.77
2023-04-24T13:31:33.247Z,1.90
2023-04-24T13:34:01.254Z,2.10
2023-04-24T13:36:29.279Z,1.97
2023-04-24T13:38:57.340Z,2.00
2023-04-24T13:41:26.718Z,1.77
2023-04-24T13:43:54.671Z,2.17
2023-04-24T13:46:22.693Z,2.27
2023-04-24T13:48:50.762Z,2.40
2023-04-24T13:51:18.734Z,2.40
2023-04-24T13:53:46.700Z,1.87
2023-04-24T13:56:15.206Z,2.70
2023-04-24T13:58:44.572Z,2.17
2023-04-24T14:01:12.545Z,2.67
2023-04-24T14:03:40.727Z,2.20
2023-04-24T14:06:09.068Z,3.10
2023-04-24T14:08:37.074Z,3.03
2023-04-24T14:11:05.514Z,2.50
2023-04-24T14:13:33.994Z,2.50
2023-04-24T14:16:03.337Z,3.20
2023-04-24T14:18:31.298Z,2.50
2023-04-24T14:20:59.255Z,3.17
2023-04-24T14:23:27.360Z,3.60
2023-04-24T14:25:55.395Z,3.40
2023-04-24T14:28:23.392Z,3.10
2023-04-24T14:30:51.417Z,2.33
2023-04-24T14:33:20.774Z,3.13
2023-04-24T14:35:48.858Z,3.10
2023-04-24T14:38:16.932Z,3.23
2023-04-24T14:41:05.479Z,3.20
2023-04-24T14:43:33.783Z,3.30
2023-04-24T14:46:01.786Z,3.10
2023-04-24T14:48:31.162Z,2.70
2023-04-24T14:50:59.461Z,2.90
2023-04-24T14:53:27.452Z,2.50
2023-04-24T14:55:55.853Z,2.83
2023-04-24T14:58:23.971Z,2.77
2023-04-24T15:00:53.076Z,2.50
2023-04-24T15:03:21.672Z,2.20
2023-04-24T15:05:51.475Z,2.63
2023-04-24T15:08:19.521Z,2.90
2023-04-24T15:10:47.481Z,3.00
2023-04-24T15:13:15.447Z,2.90
2023-04-24T15:15:43.468Z,3.40
2023-04-24T15:18:12.827Z,3.10
2023-04-24T15:20:42.361Z,3.17
2023-04-24T15:23:11.785Z,3.97
2023-04-24T15:25:39.897Z,3.30
2023-04-24T15:28:07.965Z,3.10
2023-04-24T15:30:36.172Z,3.63
2023-04-24T15:33:04.389Z,3.10
2023-04-24T15:35:32.462Z,3.87
2023-04-24T15:38:00.640Z,3.57
2023-04-24T15:40:30.171Z,4.33
2023-04-24T15:42:58.343Z,3.50
2023-04-24T15:45:26.393Z,2.93
2023-04-24T15:47:54.467Z,3.40
2023-04-24T15:50:22.852Z,3.80
2023-04-24T15:52:50.833Z,3.40
2023-04-24T15:55:19.014Z,3.23
2023-04-24T15:57:48.416Z,3.70
2023-04-24T16:00:18.386Z,3.70
2023-04-24T16:02:46.804Z,3.97
2023-04-24T16:05:15.111Z,3.30
2023-04-24T16:07:43.352Z,3.97
2023-04-24T16:10:12.303Z,3.03
2023-04-24T16:12:40.956Z,3.80
2023-04-24T16:15:11.415Z,3.00
2023-04-24T16:17:39.876Z,3.90
2023-04-24T16:20:09.676Z,3.70
2023-04-24T16:22:38.063Z,4.93
2023-04-24T16:25:07.270Z,3.97
2023-04-24T16:27:35.901Z,4.10
2023-04-24T16:30:04.514Z,4.90
2023-04-24T16:32:34.655Z,4.20
2023-04-24T16:35:03.170Z,4.43
2023-04-24T16:37:31.848Z,3.60
2023-04-24T16:40:00.463Z,4.60
2023-04-24T16:42:29.150Z,4.23
2023-04-24T16:44:57.845Z,3.57
2023-04-24T16:47:26.609Z,3.50
2023-04-24T16:49:56.667Z,3.77
2023-04-24T16:52:25.400Z,3.20
2023-04-24T16:54:54.098Z,3.40
2023-04-24T16:57:22.831Z,3.73
2023-04-24T16:59:51.602Z,3.63
2023-04-24T17:02:20.561Z,4.33
2023-04-24T17:04:49.536Z,3.37
2023-04-24T17:07:19.865Z,3.37
2023-04-24T17:09:48.510Z,3.03
2023-04-24T17:12:17.065Z,3.60
2023-04-24T17:14:45.721Z,3.13
2023-04-24T17:17:15.006Z,3.93
2023-04-24T17:19:43.689Z,4.07
2023-04-24T17:22:12.286Z,3.53
2023-04-24T17:24:42.202Z,4.30
2023-04-24T17:27:14.876Z,4.33
2023-04-24T17:29:43.893Z,4.30
2023-04-24T17:32:12.586Z,4.50
2023-04-24T17:34:41.448Z,4.57
2023-04-24T17:37:10.211Z,3.90
2023-04-24T17:39:38.735Z,4.00
2023-04-24T17:42:08.306Z,5.03
2023-04-24T17:44:36.387Z,3.67
2023-04-24T17:47:04.938Z,3.70
2023-04-24T17:49:32.904Z,4.20
2023-04-24T17:52:00.901Z,3.30
2023-04-24T17:54:28.933Z,4.40
2023-04-24T17:56:56.964Z,4.53
2023-04-24T17:59:26.630Z,4.03
2023-04-24T18:01:54.812Z,3.83
2023-04-24T18:04:22.981Z,4.10
2023-04-24T18:06:51.190Z,4.17
2023-04-24T18:09:21.114Z,3.70
2023-04-24T18:11:50.256Z,3.83
2023-04-24T18:14:18.286Z,3.97
2023-04-24T18:16:47.687Z,4.73
2023-04-24T18:19:15.774Z,3.53
2023-04-24T18:21:43.754Z,4.10
2023-04-24T18:24:11.740Z,4.10
2023-04-24T18:26:39.728Z,4.60
2023-04-24T18:29:07.765Z,4.23
2023-04-24T18:31:35.856Z,4.60
2023-04-24T18:34:05.409Z,4.00
2023-04-24T18:36:33.830Z,4.23
2023-04-24T18:39:01.830Z,4.17
2023-04-24T18:41:29.836Z,3.90
2023-04-24T18:43:59.341Z,4.33
2023-04-24T18:46:27.565Z,3.97
2023-04-24T18:48:55.802Z,3.23
2023-04-24T18:51:25.140Z,4.17
2023-04-24T18:53:53.234Z,3.90
2023-04-24T18:56:21.281Z,3.60
2023-04-24T18:58:49.704Z,4.67
2023-04-24T19:01:18.086Z,3.53
2023-04-24T19:03:46.157Z,4.07
2023-04-24T19:06:14.269Z,3.00
2023-04-24T19:08:44.908Z,3.70
2023-04-24T19:11:12.949Z,3.33
2023-04-24T19:13:41.956Z,3.70
2023-04-24T19:16:09.981Z,4.03
2023-04-24T19:18:38.045Z,3.63
2023-04-24T19:21:06.058Z,3.57
2023-04-24T19:23:36.645Z,4.10
2023-04-24T19:26:06.045Z,3.83
2023-04-24T19:28:34.031Z,5.73
2023-04-24T19:31:01.998Z,6.77
2023-04-24T19:33:29.977Z,5.00
2023-04-24T19:35:58.014Z,4.50
2023-04-24T19:38:25.992Z,4.60
2023-04-24T19:40:53.988Z,4.17
2023-04-24T19:43:23.395Z,3.83
2023-04-24T19:45:51.775Z,4.27
2023-04-24T19:48:19.972Z,3.57
2023-04-24T19:50:48.007Z,3.50
2023-04-24T19:53:16.038Z,3.77
2023-04-24T19:55:44.043Z,3.23
2023-04-24T19:58:12.073Z,2.97
2023-04-24T20:00:42.826Z,2.57
2023-04-24T20:03:18.731Z,2.60
2023-04-24T20:05:58.761Z,2.57
2023-04-24T20:08:26.766Z,3.30
2023-04-24T20:10:57.884Z,2.80
2023-04-24T20:13:27.688Z,2.50
2023-04-24T20:15:57.019Z,2.60
2023-04-24T20:18:25.025Z,2.90
2023-04-24T20:20:56.895Z,2.53
2023-04-24T20:23:24.866Z,2.67
2023-04-24T20:25:57.953Z,2.90
2023-04-24T20:28:26.802Z,2.60
2023-04-24T20:30:56.151Z,2.60
2023-04-24T20:33:25.835Z,2.17
2023-04-24T20:35:53.789Z,2.97
2023-04-24T20:38:22.580Z,1.93
2023-04-24T20:40:57.855Z,2.50
2023-04-24T20:43:28.643Z,2.20
2023-04-24T20:45:59.298Z,2.63
2023-04-24T20:48:27.302Z,3.00
2023-04-24T20:50:56.054Z,2.13
2023-04-24T20:53:24.150Z,2.30
2023-04-24T20:55:52.132Z,2.80
2023-04-24T20:58:21.065Z,3.10
2023-04-24T21:00:49.261Z,2.70
2023-04-24T21:03:18.921Z,3.37
2023-04-24T21:05:47.090Z,2.77
2023-04-24T21:08:15.191Z,2.77
2023-04-24T21:10:43.165Z,2.40
2023-04-24T21:13:11.137Z,3.23
2023-04-24T21:15:39.058Z,3.53
2023-04-24T21:18:07.136Z,3.23
2023-04-24T21:20:36.500Z,2.40
2023-04-24T21:23:04.456Z,3.10
2023-04-24T21:25:32.371Z,4.00
2023-04-24T21:28:00.584Z,3.30
2023-04-24T21:30:28.689Z,3.43
2023-04-24T21:32:57.035Z,2.87
2023-04-24T21:35:24.988Z,3.00
2023-04-24T21:37:54.296Z,2.27
2023-04-24T21:40:22.270Z,2.73
2023-04-24T21:42:51.862Z,2.50
2023-04-24T21:45:20.147Z,2.47
2023-04-24T21:47:48.133Z,2.53
2023-04-24T21:50:16.037Z,2.67
2023-04-24T21:52:43.939Z,2.40
2023-04-24T21:55:13.220Z,2.80
2023-04-24T21:57:41.170Z,2.40
2023-04-24T22:00:11.389Z,2.47
2023-04-24T22:02:39.775Z,1.87
2023-04-24T22:05:09.838Z,2.60
2023-04-24T22:07:37.803Z,2.57
2023-04-24T22:10:06.964Z,3.03
2023-04-24T22:12:36.272Z,2.70
2023-04-24T22:15:04.697Z,3.13
2023-04-24T22:17:33.664Z,2.83
2023-04-24T22:20:01.994Z,2.87
2023-04-24T22:22:29.929Z,3.00
2023-04-24T22:24:57.837Z,2.73
2023-04-24T22:27:25.827Z,2.03
2023-04-24T22:29:55.095Z,2.27
2023-04-24T22:32:23.088Z,2.90
2023-04-24T22:34:50.995Z,2.90
2023-04-24T22:37:18.949Z,3.00
2023-04-24T22:39:46.888Z,2.77
2023-04-24T22:42:15.734Z,2.63
2023-04-24T22:44:43.701Z,2.40
2023-04-24T22:47:12.960Z,2.50
2023-04-24T22:49:41.920Z,2.60
2023-04-24T22:52:10.941Z,3.00
2023-04-24T22:54:38.879Z,3.30
2023-04-24T22:57:06.864Z,3.07
2023-04-24T22:59:34.814Z,3.70
2023-04-24T23:02:02.763Z,3.50
2023-04-24T23:04:32.114Z,3.60
2023-04-24T23:07:00.075Z,2.77
2023-04-24T23:09:28.017Z,2.63
2023-04-24T23:11:58.002Z,2.83
2023-04-24T23:14:25.962Z,3.20
2023-04-24T23:16:54.025Z,3.00
2023-04-24T23:19:22.008Z,3.73
2023-04-24T23:21:52.022Z,3.77
2023-04-24T23:24:19.990Z,3.20
2023-04-24T23:26:47.934Z,3.70
2023-04-24T23:29:15.832Z,3.80
2023-04-24T23:31:43.770Z,3.80
2023-04-24T23:34:11.719Z,3.60
2023-04-24T23:36:39.602Z,3.70
2023-04-24T23:39:08.936Z,3.90
2023-04-24T23:41:37.635Z,4.33
2023-04-24T23:44:05.992Z,3.50
2023-04-24T23:46:33.918Z,3.90
2023-04-24T23:49:01.934Z,5.37
2023-04-24T23:51:29.897Z,4.63
2023-04-24T23:53:57.855Z,4.30
2023-04-24T23:56:29.247Z,4.10
2023-04-24T23:58:57.213Z,4.10
